sensor_id;sensor_type;location;lat;lon;timestamp;pressure;altitude;pressure_sealevel;temperature;humidity
51439;BME280;38816;51.142;-0.974;2023-08-21T00:00:42;100886.22;;;14.09;100.00
51439;BME280;38816;51.142;-0.974;2023-08-21T00:03:07;100882.78;;;14.09;100.00
51439;BME280;38816;51.142;-0.974;2023-08-21T00:05:33;100883.63;;;14.08;100.00
51439;BME280;38816;51.142;-0.974;2023-08-21T00:07:58;100887.94;;;14.07;100.00
51439;BME280;38816;51.142;-0.974;2023-08-21T00:10:24;100882.75;;;14.06;100.00
51439;BME280;38816;51.142;-0.974;2023-08-21T00:12:49;100883.59;;;14.05;100.00
51439;BME280;38816;51.142;-0.974;2023-08-21T00:15:15;100885.34;;;14.07;100.00
51439;BME280;38816;51.142;-0.974;2023-08-21T00:17:40;100884.50;;;14.07;100.00
51439;BME280;38816;51.142;-0.974;2023-08-21T00:20:06;100881.09;;;14.11;100.00
51439;BME280;38816;51.142;-0.974;2023-08-21T00:22:35;100879.44;;;14.14;100.00
51439;BME280;38816;51.142;-0.974;2023-08-21T00:25:00;100882.00;;;14.14;100.00
51439;BME280;38816;51.142;-0.974;2023-08-21T00:27:26;100878.56;;;14.14;100.00
51439;BME280;38816;51.142;-0.974;2023-08-21T00:29:51;100876.81;;;14.13;100.00
51439;BME280;38816;51.142;-0.974;2023-08-21T00:32:17;100874.22;;;14.11;100.00
51439;BME280;38816;51.142;-0.974;2023-08-21T00:34:42;100869.84;;;14.06;100.00
51439;BME280;38816;51.142;-0.974;2023-08-21T00:37:08;100877.53;;;14.03;100.00
51439;BME280;38816;51.142;-0.974;2023-08-21T00:39:34;100876.63;;;13.99;100.00
51439;BME280;38816;51.142;-0.974;2023-08-21T00:41:59;100872.28;;;13.95;100.00
51439;BME280;38816;51.142;-0.974;2023-08-21T00:44:24;100873.97;;;13.91;100.00
51439;BME280;38816;51.142;-0.974;2023-08-21T00:46:50;100877.31;;;13.86;100.00
51439;BME280;38816;51.142;-0.974;2023-08-21T00:49:15;100877.25;;;13.80;100.00
51439;BME280;38816;51.142;-0.974;2023-08-21T00:51:41;100882.34;;;13.75;100.00
51439;BME280;38816;51.142;-0.974;2023-08-21T00:54:07;100878.00;;;13.73;100.00
51439;BME280;38816;51.142;-0.974;2023-08-21T00:56:33;100883.16;;;13.71;100.00
51439;BME280;38816;51.142;-0.974;2023-08-21T00:58:59;100879.69;;;13.69;100.00
51439;BME280;38816;51.142;-0.974;2023-08-21T01:01:24;100877.94;;;13.66;100.00
51439;BME280;38816;51.142;-0.974;2023-08-21T01:03:52;100883.03;;;13.62;100.00
51439;BME280;38816;51.142;-0.974;2023-08-21T01:06:19;100878.66;;;13.58;100.00
51439;BME280;38816;51.142;-0.974;2023-08-21T01:08:59;100884.66;;;13.55;100.00
51439;BME280;38816;51.142;-0.974;2023-08-21T01:12:37;100885.50;;;13.53;100.00
51439;BME280;38816;51.142;-0.974;2023-08-21T01:14:51;100888.88;;;13.50;100.00
51439;BME280;38816;51.142;-0.974;2023-08-21T01:17:19;100882.00;;;13.51;100.00
51439;BME280;38816;51.142;-0.974;2023-08-21T01:19:48;100888.13;;;13.57;100.00
51439;BME280;38816;51.142;-0.974;2023-08-21T01:22:14;100883.97;;;13.67;100.00
51439;BME280;38816;51.142;-0.974;2023-08-21T01:24:40;100889.25;;;13.76;100.00
51439;BME280;38816;51.142;-0.974;2023-08-21T01:27:05;100883.34;;;13.86;100.00
51439;BME280;38816;51.142;-0.974;2023-08-21T01:29:32;100881.81;;;13.99;100.00
51439;BME280;38816;51.142;-0.974;2023-08-21T01:32:07;100882.88;;;14.15;100.00
51439;BME280;38816;51.142;-0.974;2023-08-21T01:34:34;100885.63;;;14.29;100.00
51439;BME280;38816;51.142;-0.974;2023-08-21T01:37:01;100878.00;;;14.42;100.00
51439;BME280;38816;51.142;-0.974;2023-08-21T01:39:27;100880.78;;;14.55;100.00
51439;BME280;38816;51.142;-0.974;2023-08-21T01:41:53;100886.91;;;14.66;100.00
51439;BME280;38816;51.142;-0.974;2023-08-21T01:44:19;100883.56;;;14.75;100.00
51439;BME280;38816;51.142;-0.974;2023-08-21T01:46:44;100878.47;;;14.82;100.00
51439;BME280;38816;51.142;-0.974;2023-08-21T01:49:09;100888.84;;;14.88;100.00
51439;BME280;38816;51.142;-0.974;2023-08-21T01:51:35;100878.50;;;14.88;100.00
51439;BME280;38816;51.142;-0.974;2023-08-21T01:54:00;100882.00;;;14.93;100.00
51439;BME280;38816;51.142;-0.974;2023-08-21T01:56:26;100883.78;;;15.01;100.00
51439;BME280;38816;51.142;-0.974;2023-08-21T01:58:51;100883.84;;;15.07;100.00
51439;BME280;38816;51.142;-0.974;2023-08-21T02:01:16;100887.31;;;15.10;100.00
51439;BME280;38816;51.142;-0.974;2023-08-21T02:03:44;100891.63;;;15.11;100.00
51439;BME280;38816;51.142;-0.974;2023-08-21T02:06:10;100891.63;;;15.11;100.00
51439;BME280;38816;51.142;-0.974;2023-08-21T02:08:35;100885.59;;;15.11;100.00
51439;BME280;38816;51.142;-0.974;2023-08-21T02:11:01;100893.41;;;15.14;100.00
51439;BME280;38816;51.142;-0.974;2023-08-21T02:13:26;100889.09;;;15.14;100.00
51439;BME280;38816;51.142;-0.974;2023-08-21T02:15:52;100889.94;;;15.16;100.00
51439;BME280;38816;51.142;-0.974;2023-08-21T02:18:18;100890.81;;;15.17;100.00
51439;BME280;38816;51.142;-0.974;2023-08-21T02:20:43;100886.53;;;15.17;100.00
51439;BME280;38816;51.142;-0.974;2023-08-21T02:23:09;100888.25;;;15.18;100.00
51439;BME280;38816;51.142;-0.974;2023-08-21T02:25:34;100884.78;;;15.15;100.00
51439;BME280;38816;51.142;-0.974;2023-08-21T02:28:00;100892.53;;;15.15;100.00
51439;BME280;38816;51.142;-0.974;2023-08-21T02:30:28;100889.06;;;15.13;100.00
51439;BME280;38816;51.142;-0.974;2023-08-21T02:32:54;100895.13;;;15.13;100.00
51439;BME280;38816;51.142;-0.974;2023-08-21T02:35:20;100895.13;;;15.15;100.00
51439;BME280;38816;51.142;-0.974;2023-08-21T02:37:45;100896.88;;;15.17;100.00
51439;BME280;38816;51.142;-0.974;2023-08-21T02:40:11;100894.25;;;15.16;100.00
51439;BME280;38816;51.142;-0.974;2023-08-21T02:42:36;100889.91;;;15.12;100.00
51439;BME280;38816;51.142;-0.974;2023-08-21T02:45:02;100895.09;;;15.10;100.00
51439;BME280;38816;51.142;-0.974;2023-08-21T02:47:42;100888.22;;;15.14;100.00
51439;BME280;38816;51.142;-0.974;2023-08-21T02:50:09;100895.16;;;15.19;100.00
51439;BME280;38816;51.142;-0.974;2023-08-21T02:52:35;100896.81;;;15.13;100.00
51439;BME280;38816;51.142;-0.974;2023-08-21T02:55:01;100895.09;;;15.12;100.00
51439;BME280;38816;51.142;-0.974;2023-08-21T02:57:27;100890.78;;;15.12;100.00
51439;BME280;38816;51.142;-0.974;2023-08-21T02:59:54;100892.53;;;15.13;100.00
51439;BME280;38816;51.142;-0.974;2023-08-21T03:02:19;100890.81;;;15.17;100.00
51439;BME280;38816;51.142;-0.974;2023-08-21T03:04:45;100896.84;;;15.16;100.00
51439;BME280;38816;51.142;-0.974;2023-08-21T03:07:11;100895.97;;;15.11;100.00
51439;BME280;38816;51.142;-0.974;2023-08-21T03:09:37;100895.91;;;15.08;100.00
51439;BME280;38816;51.142;-0.974;2023-08-21T03:12:03;100899.38;;;15.07;100.00
51439;BME280;38816;51.142;-0.974;2023-08-21T03:14:29;100901.09;;;15.08;100.00
51439;BME280;38816;51.142;-0.974;2023-08-21T03:16:54;100894.22;;;15.10;100.00
51439;BME280;38816;51.142;-0.974;2023-08-21T03:19:20;100896.81;;;15.10;100.00
51439;BME280;38816;51.142;-0.974;2023-08-21T03:21:46;100895.09;;;15.09;100.00
51439;BME280;38816;51.142;-0.974;2023-08-21T03:24:11;100895.97;;;15.11;100.00
51439;BME280;38816;51.142;-0.974;2023-08-21T03:26:37;100894.25;;;15.16;100.00
51439;BME280;38816;51.142;-0.974;2023-08-21T03:29:02;100899.47;;;15.19;100.00
51439;BME280;38816;51.142;-0.974;2023-08-21T03:31:28;100896.03;;;15.20;100.00
51439;BME280;38816;51.142;-0.974;2023-08-21T03:33:54;100889.94;;;15.16;100.00
51439;BME280;38816;51.142;-0.974;2023-08-21T03:36:19;100904.63;;;15.16;100.00
51439;BME280;38816;51.142;-0.974;2023-08-21T03:38:45;100897.69;;;15.12;100.00
51439;BME280;38816;51.142;-0.974;2023-08-21T03:41:11;100902.00;;;15.10;100.00
51439;BME280;38816;51.142;-0.974;2023-08-21T03:43:37;100892.50;;;15.09;100.00
51439;BME280;38816;51.142;-0.974;2023-08-21T03:46:03;100901.91;;;15.04;100.00
51439;BME280;38816;51.142;-0.974;2023-08-21T03:48:28;100900.16;;;14.97;100.00
51439;BME280;38816;51.142;-0.974;2023-08-21T03:50:54;100896.66;;;14.94;100.00
51439;BME280;38816;51.142;-0.974;2023-08-21T03:53:19;100898.38;;;14.92;100.00
51439;BME280;38816;51.142;-0.974;2023-08-21T03:55:45;100902.75;;;14.97;100.00
51439;BME280;38816;51.142;-0.974;2023-08-21T03:58:11;100900.19;;;15.00;100.00
51439;BME280;38816;51.142;-0.974;2023-08-21T04:00:39;100900.19;;;15.03;100.00
51439;BME280;38816;51.142;-0.974;2023-08-21T04:03:05;100897.56;;;14.97;100.00
51439;BME280;38816;51.142;-0.974;2023-08-21T04:05:30;100892.34;;;14.93;100.00
51439;BME280;38816;51.142;-0.974;2023-08-21T04:07:56;100902.63;;;14.84;100.00
51439;BME280;38816;51.142;-0.974;2023-08-21T04:10:21;100899.94;;;14.77;100.00
51439;BME280;38816;51.142;-0.974;2023-08-21T04:12:47;100903.41;;;14.76;100.00
51439;BME280;38816;51.142;-0.974;2023-08-21T04:15:12;100897.41;;;14.78;100.00
51439;BME280;38816;51.142;-0.974;2023-08-21T04:17:38;100897.44;;;14.83;100.00
51439;BME280;38816;51.142;-0.974;2023-08-21T04:20:04;100897.44;;;14.84;100.00
51439;BME280;38816;51.142;-0.974;2023-08-21T04:22:30;100904.34;;;14.85;100.00
51439;BME280;38816;51.142;-0.974;2023-08-21T04:24:55;100897.44;;;14.83;100.00
51439;BME280;38816;51.142;-0.974;2023-08-21T04:27:20;100902.63;;;14.84;100.00
51439;BME280;38816;51.142;-0.974;2023-08-21T04:29:46;100905.19;;;14.83;100.00
51439;BME280;38816;51.142;-0.974;2023-08-21T04:32:11;100908.63;;;14.79;100.00
51439;BME280;38816;51.142;-0.974;2023-08-21T04:34:37;100907.66;;;14.69;100.00
51439;BME280;38816;51.142;-0.974;2023-08-21T04:37:03;100912.84;;;14.69;100.00
51439;BME280;38816;51.142;-0.974;2023-08-21T04:39:29;100905.94;;;14.68;100.00
51439;BME280;38816;51.142;-0.974;2023-08-21T04:41:55;100906.81;;;14.72;100.00
51439;BME280;38816;51.142;-0.974;2023-08-21T04:44:20;100911.16;;;14.73;100.00
51439;BME280;38816;51.142;-0.974;2023-08-21T04:46:48;100912.03;;;14.75;100.00
51439;BME280;38816;51.142;-0.974;2023-08-21T04:49:13;100911.19;;;14.80;100.00
51439;BME280;38816;51.142;-0.974;2023-08-21T04:51:39;100906.06;;;14.83;100.00
51439;BME280;38816;51.142;-0.974;2023-08-21T04:54:04;100911.25;;;14.83;100.00
51439;BME280;38816;51.142;-0.974;2023-08-21T04:56:30;100921.56;;;14.80;100.00
51439;BME280;38816;51.142;-0.974;2023-08-21T04:58:55;100911.16;;;14.74;100.00
51439;BME280;38816;51.142;-0.974;2023-08-21T05:01:20;100916.31;;;14.73;100.00
51439;BME280;38816;51.142;-0.974;2023-08-21T05:03:46;100917.16;;;14.72;100.00
51439;BME280;38816;51.142;-0.974;2023-08-21T05:06:11;100924.91;;;14.70;100.00
51439;BME280;38816;51.142;-0.974;2023-08-21T05:08:37;100919.78;;;14.73;100.00
51439;BME280;38816;51.142;-0.974;2023-08-21T05:11:02;100921.53;;;14.77;100.00
51439;BME280;38816;51.142;-0.974;2023-08-21T05:13:27;100920.75;;;14.84;100.00
51439;BME280;38816;51.142;-0.974;2023-08-21T05:15:54;100923.38;;;14.87;100.00
51439;BME280;38816;51.142;-0.974;2023-08-21T05:18:21;100924.22;;;14.89;100.00
51439;BME280;38816;51.142;-0.974;2023-08-21T05:20:47;100925.13;;;14.91;100.00
51439;BME280;38816;51.142;-0.974;2023-08-21T05:23:13;100929.44;;;14.91;100.00
51439;BME280;38816;51.142;-0.974;2023-08-21T05:25:39;100927.69;;;14.90;100.00
51439;BME280;38816;51.142;-0.974;2023-08-21T05:28:06;100926.00;;;14.90;100.00
51439;BME280;38816;51.142;-0.974;2023-08-21T05:30:31;100932.03;;;14.92;100.00
51439;BME280;38816;51.142;-0.974;2023-08-21T05:32:57;100939.81;;;14.94;100.00
51439;BME280;38816;51.142;-0.974;2023-08-21T05:35:22;100934.66;;;14.96;100.00
51439;BME280;38816;51.142;-0.974;2023-08-21T05:37:47;100936.41;;;14.98;100.00
51439;BME280;38816;51.142;-0.974;2023-08-21T05:40:13;100945.94;;;15.01;100.00
51439;BME280;38816;51.142;-0.974;2023-08-21T05:42:39;100942.53;;;15.05;100.00
51439;BME280;38816;51.142;-0.974;2023-08-21T05:45:07;100942.56;;;15.09;100.00
51439;BME280;38816;51.142;-0.974;2023-08-21T05:47:32;100946.91;;;15.13;100.00
51439;BME280;38816;51.142;-0.974;2023-08-21T05:49:58;100947.00;;;15.23;100.00
51439;BME280;38816;51.142;-0.974;2023-08-21T05:52:23;100946.22;;;15.31;100.00
51439;BME280;38816;51.142;-0.974;2023-08-21T05:54:49;100952.28;;;15.38;100.00
51439;BME280;38816;51.142;-0.974;2023-08-21T05:57:14;100955.78;;;15.43;100.00
51439;BME280;38816;51.142;-0.974;2023-08-21T05:59:46;100960.16;;;15.49;100.00
51439;BME280;38816;51.142;-0.974;2023-08-21T06:02:13;100952.44;;;15.55;100.00
51439;BME280;38816;51.142;-0.974;2023-08-21T06:04:42;100949.00;;;15.62;100.00
51439;BME280;38816;51.142;-0.974;2023-08-21T06:07:09;100955.13;;;15.64;100.00
51439;BME280;38816;51.142;-0.974;2023-08-21T06:09:35;100956.88;;;15.68;100.00
51439;BME280;38816;51.142;-0.974;2023-08-21T06:12:02;100951.69;;;15.69;100.00
51439;BME280;38816;51.142;-0.974;2023-08-21T06:14:27;100956.91;;;15.74;100.00
51439;BME280;38816;51.142;-0.974;2023-08-21T06:17:00;100967.34;;;15.82;100.00
51439;BME280;38816;51.142;-0.974;2023-08-21T06:19:27;100959.59;;;15.86;100.00
51439;BME280;38816;51.142;-0.974;2023-08-21T06:21:52;100960.50;;;15.98;100.00
51439;BME280;38816;51.142;-0.974;2023-08-21T06:24:18;100957.97;;;16.07;100.00
51439;BME280;38816;51.142;-0.974;2023-08-21T06:26:43;100953.66;;;16.12;100.00
51439;BME280;38816;51.142;-0.974;2023-08-21T06:29:09;100951.09;;;16.16;100.00
51439;BME280;38816;51.142;-0.974;2023-08-21T06:31:34;100953.75;;;16.27;100.00
51439;BME280;38816;51.142;-0.974;2023-08-21T06:34:00;100945.16;;;16.37;100.00
51439;BME280;38816;51.142;-0.974;2023-08-21T06:36:25;100949.50;;;16.44;100.00
51439;BME280;38816;51.142;-0.974;2023-08-21T06:38:51;100955.59;;;16.56;100.00
51439;BME280;38816;51.142;-0.974;2023-08-21T06:41:16;100951.31;;;16.70;100.00
51439;BME280;38816;51.142;-0.974;2023-08-21T06:43:42;100948.78;;;16.82;100.00
51439;BME280;38816;51.142;-0.974;2023-08-21T06:46:07;100954.00;;;16.91;100.00
51439;BME280;38816;51.142;-0.974;2023-08-21T06:48:35;100963.53;;;17.00;100.00
51439;BME280;38816;51.142;-0.974;2023-08-21T06:51:00;100960.06;;;17.10;100.00
51439;BME280;38816;51.142;-0.974;2023-08-21T06:53:27;100961.81;;;17.17;100.00
51439;BME280;38816;51.142;-0.974;2023-08-21T06:55:53;100963.56;;;17.12;100.00
51439;BME280;38816;51.142;-0.974;2023-08-21T06:58:19;100967.88;;;17.04;100.00
51439;BME280;38816;51.142;-0.974;2023-08-21T07:00:44;100972.22;;;17.02;100.00
51439;BME280;38816;51.142;-0.974;2023-08-21T07:03:10;100976.53;;;17.05;100.00
51439;BME280;38816;51.142;-0.974;2023-08-21T07:05:36;100961.81;;;17.08;100.00
51439;BME280;38816;51.142;-0.974;2023-08-21T07:08:02;100971.34;;;17.20;100.00
51439;BME280;38816;51.142;-0.974;2023-08-21T07:10:28;100969.63;;;17.30;100.00
51439;BME280;38816;51.142;-0.974;2023-08-21T07:12:54;100973.09;;;17.35;100.00
51439;BME280;38816;51.142;-0.974;2023-08-21T07:15:20;100973.09;;;17.36;100.00
51439;BME280;38816;51.142;-0.974;2023-08-21T07:17:46;100974.84;;;17.34;100.00
51439;BME280;38816;51.142;-0.974;2023-08-21T07:20:11;100982.63;;;17.39;100.00
51439;BME280;38816;51.142;-0.974;2023-08-21T07:22:37;100984.34;;;17.41;100.00
51439;BME280;38816;51.142;-0.974;2023-08-21T07:25:03;100988.69;;;17.45;100.00
51439;BME280;38816;51.142;-0.974;2023-08-21T07:27:33;100978.28;;;17.55;100.00
51439;BME280;38816;51.142;-0.974;2023-08-21T07:29:58;100976.53;;;17.69;100.00
51439;BME280;38816;51.142;-0.974;2023-08-21T07:32:24;100968.78;;;17.75;100.00
51439;BME280;38816;51.142;-0.974;2023-08-21T07:34:53;100968.72;;;17.92;100.00
51439;BME280;38816;51.142;-0.974;2023-08-21T07:37:22;100973.94;;;18.03;100.00
51439;BME280;38816;51.142;-0.974;2023-08-21T07:39:47;100980.00;;;18.02;100.00
51439;BME280;38816;51.142;-0.974;2023-08-21T07:42:13;100986.97;;;17.90;100.00
51439;BME280;38816;51.142;-0.974;2023-08-21T07:44:39;100988.69;;;17.91;100.00
51439;BME280;38816;51.142;-0.974;2023-08-21T07:47:05;100982.66;;;17.83;100.00
51439;BME280;38816;51.142;-0.974;2023-08-21T07:49:31;100969.63;;;17.71;100.00
51439;BME280;38816;51.142;-0.974;2023-08-21T07:51:57;100973.13;;;17.52;100.00
51439;BME280;38816;51.142;-0.974;2023-08-21T07:54:22;100968.78;;;17.31;100.00
51439;BME280;38816;51.142;-0.974;2023-08-21T07:56:49;100975.69;;;17.24;100.00
51439;BME280;38816;51.142;-0.974;2023-08-21T07:59:15;100968.75;;;17.15;100.00
51439;BME280;38816;51.142;-0.974;2023-08-21T08:01:40;100967.88;;;17.24;100.00
51439;BME280;38816;51.142;-0.974;2023-08-21T08:04:06;100965.28;;;17.27;100.00
51439;BME280;38816;51.142;-0.974;2023-08-21T08:06:31;100966.16;;;17.37;100.00
51439;BME280;38816;51.142;-0.974;2023-08-21T08:08:57;100977.44;;;17.62;100.00
51439;BME280;38816;51.142;-0.974;2023-08-21T08:11:23;100975.69;;;17.88;100.00
51439;BME280;38816;51.142;-0.974;2023-08-21T08:13:48;100979.97;;;18.05;100.00
51439;BME280;38816;51.142;-0.974;2023-08-21T08:16:14;100975.59;;;18.23;100.00
51439;BME280;38816;51.142;-0.974;2023-08-21T08:18:39;100966.00;;;18.35;100.00
51439;BME280;38816;51.142;-0.974;2023-08-21T08:21:05;100965.91;;;18.55;100.00
51439;BME280;38816;51.142;-0.974;2023-08-21T08:23:30;100964.13;;;18.72;100.00
51439;BME280;38816;51.142;-0.974;2023-08-21T08:25:55;100966.56;;;19.03;100.00
51439;BME280;38816;51.142;-0.974;2023-08-21T08:28:21;100960.31;;;19.25;100.00
51439;BME280;38816;51.142;-0.974;2023-08-21T08:30:46;100972.38;;;19.35;100.00
51439;BME280;38816;51.142;-0.974;2023-08-21T08:33:12;100975.13;;;19.20;100.00
51439;BME280;38816;51.142;-0.974;2023-08-21T08:35:37;100978.66;;;19.14;100.00
51439;BME280;38816;51.142;-0.974;2023-08-21T08:38:03;100976.84;;;19.24;100.00
51439;BME280;38816;51.142;-0.974;2023-08-21T08:40:28;100970.75;;;19.25;100.00
51439;BME280;38816;51.142;-0.974;2023-08-21T08:42:54;100969.13;;;19.07;100.00
51439;BME280;38816;51.142;-0.974;2023-08-21T08:45:28;100969.97;;;19.11;100.00
51439;BME280;38816;51.142;-0.974;2023-08-21T08:47:59;100962.84;;;19.31;100.00
51439;BME280;38816;51.142;-0.974;2023-08-21T08:50:28;100960.25;;;19.34;100.00
51439;BME280;38816;51.142;-0.974;2023-08-21T08:52:55;100961.00;;;19.47;100.00
51439;BME280;38816;51.142;-0.974;2023-08-21T08:55:21;100949.66;;;19.49;100.00
51439;BME280;38816;51.142;-0.974;2023-08-21T08:57:46;100956.41;;;19.78;100.00
51439;BME280;38816;51.142;-0.974;2023-08-21T09:00:12;100958.75;;;20.04;100.00
51439;BME280;38816;51.142;-0.974;2023-08-21T09:02:38;100963.72;;;20.24;100.00
51439;BME280;38816;51.142;-0.974;2023-08-21T09:05:03;100967.09;;;20.34;100.00
51439;BME280;38816;51.142;-0.974;2023-08-21T09:07:29;100972.25;;;20.38;100.00
51439;BME280;38816;51.142;-0.974;2023-08-21T09:09:55;100969.88;;;20.17;100.00
51439;BME280;38816;51.142;-0.974;2023-08-21T09:12:20;100966.72;;;19.90;100.00
51439;BME280;38816;51.142;-0.974;2023-08-21T09:14:47;100968.59;;;19.76;100.00
51439;BME280;38816;51.142;-0.974;2023-08-21T09:17:13;100968.47;;;19.88;100.00
51439;BME280;38816;51.142;-0.974;2023-08-21T09:19:39;100970.66;;;20.25;100.00
51439;BME280;38816;51.142;-0.974;2023-08-21T09:22:17;100966.50;;;20.81;100.00
51439;BME280;38816;51.142;-0.974;2023-08-21T09:25:03;100966.63;;;21.29;97.29
51439;BME280;38816;51.142;-0.974;2023-08-21T09:27:35;100967.38;;;21.39;92.21
51439;BME280;38816;51.142;-0.974;2023-08-21T09:30:06;100971.50;;;21.54;96.95
51439;BME280;38816;51.142;-0.974;2023-08-21T09:32:56;100976.44;;;21.70;93.96
51439;BME280;38816;51.142;-0.974;2023-08-21T09:35:23;100978.34;;;21.62;92.47
51439;BME280;38816;51.142;-0.974;2023-08-21T09:37:49;100971.34;;;21.63;93.28
51439;BME280;38816;51.142;-0.974;2023-08-21T09:40:18;100977.41;;;21.65;95.09
51439;BME280;38816;51.142;-0.974;2023-08-21T09:42:45;100977.34;;;21.68;94.89
51439;BME280;38816;51.142;-0.974;2023-08-21T09:45:10;100980.63;;;21.81;93.26
51439;BME280;38816;51.142;-0.974;2023-08-21T09:47:37;100974.56;;;21.77;89.21
51439;BME280;38816;51.142;-0.974;2023-08-21T09:50:05;100969.53;;;21.65;93.25
51439;BME280;38816;51.142;-0.974;2023-08-21T09:52:30;100982.72;;;21.60;88.71
51439;BME280;38816;51.142;-0.974;2023-08-21T09:54:57;100981.03;;;21.56;88.66
51439;BME280;38816;51.142;-0.974;2023-08-21T09:57:23;100979.47;;;21.46;86.44
51439;BME280;38816;51.142;-0.974;2023-08-21T09:59:53;100975.84;;;21.55;87.77
51439;BME280;38816;51.142;-0.974;2023-08-21T10:02:20;100983.66;;;21.58;90.93
51439;BME280;38816;51.142;-0.974;2023-08-21T10:04:48;100974.78;;;21.65;89.98
51439;BME280;38816;51.142;-0.974;2023-08-21T10:07:15;100983.38;;;21.73;89.36
51439;BME280;38816;51.142;-0.974;2023-08-21T10:09:42;100978.09;;;21.76;89.93
51439;BME280;38816;51.142;-0.974;2023-08-21T10:12:13;100976.47;;;21.69;85.96
51439;BME280;38816;51.142;-0.974;2023-08-21T10:14:39;100977.44;;;21.63;90.78
51439;BME280;38816;51.142;-0.974;2023-08-21T10:17:06;100976.00;;;21.95;92.68
51439;BME280;38816;51.142;-0.974;2023-08-21T10:19:34;100971.19;;;22.20;89.01
51439;BME280;38816;51.142;-0.974;2023-08-21T10:22:00;100966.44;;;22.37;90.37
51439;BME280;38816;51.142;-0.974;2023-08-21T10:24:35;100969.16;;;22.34;82.51
51439;BME280;38816;51.142;-0.974;2023-08-21T10:27:06;100968.53;;;22.21;81.42
51439;BME280;38816;51.142;-0.974;2023-08-21T10:29:32;100964.34;;;22.10;83.19
51439;BME280;38816;51.142;-0.974;2023-08-21T10:32:02;100962.75;;;22.03;81.95
51439;BME280;38816;51.142;-0.974;2023-08-21T10:34:33;100956.84;;;21.91;86.35
51439;BME280;38816;51.142;-0.974;2023-08-21T10:39:26;100948.56;;;21.68;85.10
51439;BME280;38816;51.142;-0.974;2023-08-21T10:41:59;100951.78;;;21.82;87.39
51439;BME280;38816;51.142;-0.974;2023-08-21T10:47:31;100941.91;;;21.98;83.51
51439;BME280;38816;51.142;-0.974;2023-08-21T10:49:57;100941.50;;;22.19;88.33
51439;BME280;38816;51.142;-0.974;2023-08-21T10:52:28;100944.47;;;22.44;88.15
51439;BME280;38816;51.142;-0.974;2023-08-21T10:54:55;100947.66;;;22.59;87.99
51439;BME280;38816;51.142;-0.974;2023-08-21T10:57:26;100947.19;;;22.80;87.86
51439;BME280;38816;51.142;-0.974;2023-08-21T11:00:00;100945.94;;;22.96;87.26
51439;BME280;38816;51.142;-0.974;2023-08-21T11:02:29;100939.34;;;23.17;84.78
51439;BME280;38816;51.142;-0.974;2023-08-21T11:04:55;100930.06;;;23.38;80.21
51439;BME280;38816;51.142;-0.974;2023-08-21T11:07:21;100932.66;;;23.74;82.11
51439;BME280;38816;51.142;-0.974;2023-08-21T11:09:50;100938.69;;;24.09;78.64
51439;BME280;38816;51.142;-0.974;2023-08-21T11:12:18;100930.59;;;24.16;77.67
51439;BME280;38816;51.142;-0.974;2023-08-21T11:14:44;100920.47;;;24.34;76.45
51439;BME280;38816;51.142;-0.974;2023-08-21T11:17:10;100927.56;;;24.30;75.47
51439;BME280;38816;51.142;-0.974;2023-08-21T11:19:37;100935.66;;;24.24;76.48
51439;BME280;38816;51.142;-0.974;2023-08-21T11:22:03;100937.50;;;24.20;75.60
51439;BME280;38816;51.142;-0.974;2023-08-21T11:24:47;100926.56;;;24.05;75.41
51439;BME280;38816;51.142;-0.974;2023-08-21T11:27:15;100922.16;;;23.74;73.94
51439;BME280;38816;51.142;-0.974;2023-08-21T11:29:45;100920.50;;;23.37;78.21
51439;BME280;38816;51.142;-0.974;2023-08-21T11:34:57;100929.53;;;23.58;73.93
51439;BME280;38816;51.142;-0.974;2023-08-21T11:37:25;100919.94;;;23.24;76.45
51439;BME280;38816;51.142;-0.974;2023-08-21T11:39:52;100918.88;;;22.96;79.07
51439;BME280;38816;51.142;-0.974;2023-08-21T11:42:20;100916.84;;;22.70;82.73
51439;BME280;38816;51.142;-0.974;2023-08-21T11:44:52;100913.38;;;22.68;82.81
51439;BME280;38816;51.142;-0.974;2023-08-21T11:47:20;100905.47;;;23.08;84.13
51439;BME280;38816;51.142;-0.974;2023-08-21T11:49:46;100906.91;;;23.54;82.80
51439;BME280;38816;51.142;-0.974;2023-08-21T11:52:23;100904.31;;;23.87;78.37
51439;BME280;38816;51.142;-0.974;2023-08-21T11:54:53;100908.53;;;23.92;79.58
51439;BME280;38816;51.142;-0.974;2023-08-21T11:57:20;100904.00;;;23.97;79.52
51439;BME280;38816;51.142;-0.974;2023-08-21T11:59:55;100896.38;;;23.88;79.22
51439;BME280;38816;51.142;-0.974;2023-08-21T12:02:28;100900.38;;;24.02;79.53
51439;BME280;38816;51.142;-0.974;2023-08-21T12:05:13;100903.88;;;23.71;73.70
51439;BME280;38816;51.142;-0.974;2023-08-21T12:07:38;100894.84;;;23.13;79.50
51439;BME280;38816;51.142;-0.974;2023-08-21T12:10:04;100897.19;;;22.89;83.39
51439;BME280;38816;51.142;-0.974;2023-08-21T12:12:30;100902.78;;;23.11;82.85
51439;BME280;38816;51.142;-0.974;2023-08-21T12:14:55;100889.03;;;23.36;82.00
51439;BME280;38816;51.142;-0.974;2023-08-21T12:17:21;100889.56;;;23.81;81.68
51439;BME280;38816;51.142;-0.974;2023-08-21T12:19:46;100886.16;;;23.79;79.40
51439;BME280;38816;51.142;-0.974;2023-08-21T12:22:12;100884.81;;;23.64;79.89
51439;BME280;38816;51.142;-0.974;2023-08-21T12:24:37;100885.06;;;23.54;78.46
51439;BME280;38816;51.142;-0.974;2023-08-21T12:27:04;100878.34;;;23.76;78.30
51439;BME280;38816;51.142;-0.974;2023-08-21T12:29:29;100868.28;;;24.21;79.04
51439;BME280;38816;51.142;-0.974;2023-08-21T12:31:58;100871.28;;;24.67;75.79
51439;BME280;38816;51.142;-0.974;2023-08-21T12:34:23;100871.75;;;24.80;74.60
51439;BME280;38816;51.142;-0.974;2023-08-21T12:36:52;100867.91;;;24.90;74.27
51439;BME280;38816;51.142;-0.974;2023-08-21T12:39:17;100866.25;;;24.87;72.87